• Join FlightAware (Why Join?)
  • Login
  • US Flag 
01:44AM EDT


 

Airport Tracker/Info


-or-


 

Live Flight TrackerFlight Track Log ✈ DAL268 ✈ 16-Oct-2013 ✈ KJFK - LLBG / TLV

Flight Track Log - Related Links

Times and Time Zones

All times are in EDT time to prevent confusion due to time zone crossing. See the DAL268 flight status page for this flight to view local times or setup timezone preferences in your user account.

Time Position Orientation Groundspeed Altitude Reporting Facility
EDT Latitude Longitude Course Direction KTS MPH feet Rate Location/Type
09:40PM 40.6390 -73.7720 217° Southwest 120 138  Level FlightAware
09:40PM 40.6240 -73.7840 211° Southwest 182 209 100 1,020 Climbing FlightAware
09:41PM 40.6120 -73.7940 212° Southwest 178 205 700 1,980 Climbing FlightAware
09:41PM 40.5980 -73.8050 211° Southwest 182 209 1,300 1,620 Climbing FlightAware
09:41PM 40.5830 -73.8180 213° Southwest 185 213 1,800 1,260 Climbing FlightAware
09:42PM 40.5700 -73.8270 208° Southwest 191 220 2,100 900 Climbing FlightAware
09:42PM 40.5680 -73.8280 201° Southwest 192 221 2,100 660 Level FlightAware
09:42PM 40.5620 -73.8290 187° South 193 222 2,200 1,200 Climbing FlightAware
09:42PM 40.5450 -73.8150 148° Southeast 198 228 2,700 1,080 Climbing FlightAware
09:42PM 40.5420 -73.8060 114° Southeast 203 234 2,800 840 Climbing FlightAware
09:42PM 40.5420 -73.7980 90° East 206 237 2,900 1,140 Climbing FlightAware
09:43PM 40.5450 -73.7740 81° East 209 241 3,300 840 Climbing FlightAware
09:43PM 40.5500 -73.7450 77° East 228 262 3,500 660 Climbing FlightAware
09:43PM 40.5560 -73.7170 74° East 238 274 3,800 780 Climbing FlightAware
09:44PM 40.5620 -73.6810 78° East 258 297 4,100 720 Climbing FlightAware
09:44PM 40.5620 -73.6520 90° East 275 316 4,300 1,020 Climbing FlightAware
09:44PM 40.5610 -73.6120 92° East 291 335 4,800 1,500 Climbing FlightAware
09:45PM 40.5610 -73.5740 90° East 303 349 5,400 1,740 Climbing FlightAware
09:45PM 40.5610 -73.5070 90° East 312 359 6,500 1,920 Climbing FlightAware
09:46PM 40.5610 -73.4690 90° East 317 365 7,200 2,280 Climbing FlightAware
09:46PM 40.5610 -73.4570 90° East 317 365 7,500 2,100 Climbing FlightAware
09:46PM 40.5610 -73.4030 90° East 323 372 8,400 1,980 Climbing FlightAware
09:47PM 40.5607 -73.3668 91° East 328 377 9,000 1,740 Climbing FlightAware ADS-B (KSNC)
09:47PM 40.5610 -73.2790 90° East 340 391 10,200 1,380 Climbing FlightAware
09:48PM 40.5602 -73.1985 91° East 366 421 10,900 1,020 Climbing FlightAware ADS-B (KSNC)
09:49PM 40.5604 -73.1008 90° East 402 463 11,600 1,320 Climbing FlightAware ADS-B (KSNC)
09:49PM 40.5625 -73.0292 88° East 411 473 12,600 1,500 Climbing FlightAware ADS-B (KSNC)
09:50PM 40.5773 -72.9396 78° East 433 498 13,300 1,800 Climbing FlightAware ADS-B (KSNC)
09:50PM 40.6015 -72.8493 71° East 438 504 14,700 1,920 Climbing FlightAware ADS-B (KSNC)
09:51PM 40.6223 -72.7674 71° East 450 518 15,500 1,860 Climbing FlightAware ADS-B (KSNC)
09:51PM 40.6390 -72.6686 77° East 455 524 16,800 1,920 Climbing FlightAware ADS-B (KSNC)
09:52PM 40.6453 -72.5825 85° East 461 531 17,700 1,740 Climbing FlightAware ADS-B (KSNC)
09:53PM 40.6516 -72.4870 85° East 469 540 18,800 1,800 Climbing FlightAware ADS-B (KSNC)
09:53PM 40.6741 -72.3522 78° East 475 547 20,200 1,440 Climbing FlightAware ADS-B (KSNC)
09:54PM 40.6950 -72.2750 70° East 485 558 20,700 1,260 Climbing FlightAware
09:54PM 40.7023 -72.2470 71° East 485 558 21,000 1,920 Climbing FlightAware ADS-B (KSNC)
09:55PM 40.7256 -72.1583 71° East 486 559 22,700 1,500 Climbing FlightAware ADS-B (KSNC)
09:56PM 40.7760 -71.9690 71° East 492 566 23,600 1,080 Climbing FlightAware
09:56PM 40.8020 -71.8750 70° East 498 573 24,200 1,200 Climbing FlightAware
09:57PM 40.8300 -71.7680 71° East 505 581 25,000 1,140 Climbing FlightAware
09:57PM 40.7889 -71.9234 251° West 496 571 25,100 1,200 Climbing FlightAware ADS-B (KSNC)
09:58PM 40.8870 -71.5650 70° East 515 593 26,400 1,080 Climbing FlightAware
09:59PM 40.9270 -71.4590 63° Northeast 524 603 26,900 1,200 Climbing FlightAware
09:59PM 40.9630 -71.3650 63° Northeast 523 602 27,800 1,200 Climbing FlightAware
10:00PM 41.0020 -71.2690 62° Northeast 527 606 28,300 780 Climbing FlightAware
10:00PM 41.0480 -71.1580 61° Northeast 536 617 28,800 840 Climbing FlightAware
10:01PM 41.0840 -71.0710 61° Northeast 538 619 29,300 840 Climbing FlightAware
10:01PM 41.1290 -70.9600 62° Northeast 544 626 29,800 660 Climbing FlightAware
10:02PM 41.1680 -70.8650 61° Northeast 551 634 30,100 840 Climbing FlightAware
10:03PM 41.2100 -70.7610 62° Northeast 551 634 30,800 1,140 Climbing FlightAware
10:03PM 41.2540 -70.6500 62° Northeast 549 632 31,500 1,020 Climbing FlightAware
10:04PM 41.2960 -70.5460 62° Northeast 550 633 32,000 780 Climbing FlightAware
10:04PM 41.3400 -70.4390 61° Northeast 551 634 32,500 840 Climbing FlightAware
10:05PM 41.3790 -70.3400 62° Northeast 551 634 33,000 420 Climbing FlightAware
10:06PM 41.4200 -70.2380 62° Northeast 551 634 33,000  Level FlightAware
10:06PM 41.4620 -70.1370 61° Northeast 551 634 33,000  Level FlightAware
10:07PM 41.4870 -70.0760 61° Northeast 551 634 33,000  Level FlightAware
10:07PM 41.5380 -69.9550 61° Northeast 551 634 33,000  Level FlightAware
10:08PM 41.5790 -69.8340 66° East 756 870 33,000  Level FlightAware
10:09PM 41.6280 -69.7090 62° Northeast 540 621 33,000  Level FlightAware
10:09PM 41.6640 -69.6150 63° Northeast 538 619 33,000  Level FlightAware
10:10PM 41.7050 -69.5080 63° Northeast 538 619 33,000  Level FlightAware
10:10PM 41.7480 -69.3990 62° Northeast 539 620 33,000  Level FlightAware
10:11PM 41.8030 -69.2560 63° Northeast 540 621 33,000  Level FlightAware
10:11PM 41.8090 -69.2384 66° East 541 623 33,000  Level FlightAware ADS-B (CYQI)
10:12PM 41.8667 -69.0895 62° Northeast 540 621 33,000  Level FlightAware ADS-B (CYQI)
10:13PM 41.9050 -68.9920 62° Northeast 540 621 33,000  Level FlightAware
10:13PM 41.9223 -68.9435 64° Northeast 539 620 33,000  Level FlightAware ADS-B (CYQI)
10:13PM 41.9520 -68.8631 64° Northeast 539 620 33,000  Level FlightAware ADS-B (KBOS)
10:14PM 41.9595 -68.8451 61° Northeast 539 620 33,000  Level FlightAware ADS-B (KBOS)
10:14PM 42.0295 -68.6570 63° Northeast 540 621 33,000  Level FlightAware ADS-B (CYQI)
10:15PM 42.0751 -68.5369 63° Northeast 541 623 33,000  Level FlightAware ADS-B (CYQI)
10:16PM 42.1085 -68.4469 63° Northeast 540 621 33,000  Level FlightAware ADS-B (CYQI)
10:16PM 42.1524 -68.3297 63° Northeast 540 621 33,000  Level FlightAware ADS-B (CYQI)
10:17PM 42.1886 -68.2305 64° Northeast 539 620 33,000  Level FlightAware ADS-B (CYQI)
10:17PM 42.2217 -68.1404 64° Northeast 539 620 33,000  Level FlightAware ADS-B (CYQI)
10:18PM 42.2460 -68.0742 64° Northeast 540 621 33,000  Level FlightAware ADS-B (KBOS)
10:19PM 42.3090 -67.9020 64° Northeast 540 621 33,000  Level FlightAware ADS-B (CYQI)
10:19PM 42.3441 -67.8081 63° Northeast 542 624 33,000  Level FlightAware ADS-B (CYQI)
10:20PM 42.3737 -67.7260 64° Northeast 543 625 33,000  Level FlightAware ADS-B (CYQI)
10:20PM 42.4179 -67.6044 64° Northeast 542 624 33,000  Level FlightAware ADS-B (CYQI)
10:21PM 42.4548 -67.5009 64° Northeast 540 621 33,000  Level FlightAware ADS-B (CYQI)
10:21PM 42.4770 -67.4380 64° Northeast 539 620 33,000  Level FlightAware
10:21PM 42.5001 -67.3765 63° Northeast 540 621 33,000  Level FlightAware ADS-B (CYQI)
10:22PM 42.5144 -67.3339 66° East 539 620 33,000  Level FlightAware ADS-B (KBOS)
10:22PM 42.5570 -67.2130 64° Northeast 536 617 33,000  Level FlightAware
10:23PM 42.5857 -67.1361 63° Northeast 540 621 33,000  Level FlightAware ADS-B (CYQI)
10:23PM 42.6226 -67.0324 64° Northeast 540 621 33,000  Level FlightAware ADS-B (CYQI)
10:24PM 42.6648 -66.9136 64° Northeast 540 621 33,000  Level FlightAware ADS-B (CYQI)
10:25PM 42.7171 -66.7712 63° Northeast 538 619 33,000  Level FlightAware ADS-B (CYQI)
10:25PM 42.7540 -66.6680 64° Northeast 538 619 33,000  Level FlightAware ADS-B (CYQI)
10:26PM 42.7811 -66.5955 63° Northeast 538 619 33,000  Level FlightAware ADS-B (CYQI)
10:26PM 42.8209 -66.4829 64° Northeast 538 619 33,000  Level FlightAware ADS-B (CYQI)
10:27PM 42.8582 -66.3797 64° Northeast 537 618 33,000  Level FlightAware ADS-B (CYQI)
10:27PM 42.8914 -66.2855 64° Northeast 537 618 33,000  Level FlightAware ADS-B (CYQI)
10:28PM 42.9284 -66.1819 64° Northeast 537 618 33,000  Level FlightAware ADS-B (CYQI)
10:28PM 42.9617 -66.0873 64° Northeast 538 619 33,000  Level FlightAware ADS-B (CYQI)
10:29PM 42.9947 -65.9956 64° Northeast 538 619 33,000  Level FlightAware ADS-B (CYQI)
10:29PM 43.0278 -65.9007 65° Northeast 539 620 33,000  Level FlightAware ADS-B (CYQI)
10:30PM 43.0607 -65.8059 65° Northeast 538 619 33,000  Level FlightAware ADS-B (CYQI)
10:31PM 43.1028 -65.6864 64° Northeast 538 619 33,000  Level FlightAware ADS-B (CYQI)
10:31PM 43.1357 -65.5909 65° Northeast 539 620 33,000  Level FlightAware ADS-B (CYQI)
10:32PM 43.1879 -65.4401 65° Northeast 539 620 33,000  Level FlightAware ADS-B (CYQI)
10:33PM 43.2218 -65.3416 65° Northeast 537 618 33,000  Level FlightAware ADS-B (CYQI)
10:33PM 43.2548 -65.2464 64° Northeast 535 616 33,000  Level FlightAware ADS-B (CYQI)
10:34PM 43.2868 -65.1545 64° Northeast 534 615 33,000  Level FlightAware ADS-B (CYQI)
10:34PM 43.3226 -65.0506 65° Northeast 533 613 33,000  Level FlightAware ADS-B (CYQI)
10:35PM 43.3549 -64.9553 65° Northeast 534 615 33,000  Level FlightAware ADS-B (CYQI)
10:35PM 43.3882 -64.8541 66° East 533 613 33,000  Level FlightAware ADS-B (CYQI)
10:36PM 43.4215 -64.7558 65° Northeast 533 613 33,000  Level FlightAware ADS-B (CYQI)
10:36PM 43.4525 -64.6636 65° Northeast 533 613 33,000  Level FlightAware ADS-B (CYQI)
10:37PM 43.4908 -64.5497 65° Northeast 534 615 33,000  Level FlightAware ADS-B (CYQI)
10:37PM 43.5239 -64.4508 65° Northeast 535 616 33,000  Level FlightAware ADS-B (CYQI)
10:38PM 43.5540 -64.3650 64° Northeast 533 613 33,000  Level FlightAware
10:38PM 43.5771 -64.2924 66° East 537 618 33,000  Level FlightAware ADS-B (CYQI)
10:39PM 43.6128 -64.1837 66° East 538 619 33,000  Level FlightAware ADS-B (CYQI)
10:40PM 43.6616 -64.0339 66° East 537 618 33,000  Level FlightAware ADS-B (CYQI)
10:40PM 43.7098 -63.8874 65° Northeast 536 617 33,000  Level FlightAware ADS-B (CYQI)
10:41PM 43.7140 -63.8900 336° Northwest 533 613 33,000  Level FlightAware
10:41PM 43.7698 -63.7026 68° East 538 619 33,000  Level FlightAware ADS-B (CYQI)
10:42PM 43.7985 -63.6148 66° East 539 620 33,000  Level FlightAware ADS-B (CYQI)
10:42PM 43.8341 -63.5044 66° East 540 621 33,000  Level FlightAware ADS-B (CYQI)
10:43PM 43.8606 -63.4222 66° East 540 621 33,000  Level FlightAware ADS-B (CYQI)
10:44PM 43.9020 -63.2923 66° East 542 624 33,000  Level FlightAware ADS-B (CYQI)
10:45PM 43.9645 -63.0952 66° East 544 626 33,000  Level FlightAware ADS-B (CYQI)
10:45PM 43.9962 -62.9930 67° East 544 626 33,000  Level FlightAware ADS-B (CYQI)
10:46PM 44.0468 -62.8334 66° East 544 626 33,000  Level FlightAware ADS-B (CYQI)
10:46PM 44.0799 -62.7274 66° East 545 627 33,000  Level FlightAware ADS-B (CYQI)
10:47PM 44.1329 -62.5579 66° East 542 624 33,000  Level FlightAware ADS-B (CYQI)
10:48PM 44.1806 -62.4043 67° East 542 624 33,000  Level FlightAware ADS-B (CYQI)
10:49PM 44.2000 -62.2333 67° East 540 621 33,000  Level Gander Center
10:50PM 44.2667 -62.0500 63° Northeast 540 621 33,000  Level Gander Center
10:51PM 44.3333 -61.8667 63° Northeast 540 621 33,000  Level Gander Center
10:52PM 44.3833 -61.6833 69° East 530 610 33,000  Level Gander Center
10:57PM 44.6960 -60.6700 69° East 538 619 33,000  Level FlightAware
10:58PM 44.7410 -60.5170 67° East 540 621 33,000  Level FlightAware
10:59PM 44.7740 -60.4000 68° East 540 621 33,000  Level FlightAware
10:59PM 44.8070 -60.2830 68° East 541 623 33,000  Level FlightAware
11:00PM 44.8360 -60.1810 68° East 541 623 33,000  Level FlightAware
11:00PM 44.8700 -60.0600 68° East 541 623 33,000  Level FlightAware
11:01PM 44.9040 -59.9380 68° East 541 623 33,000  Level FlightAware
11:02PM 44.9320 -59.8370 69° East 541 623 33,000  Level FlightAware
11:02PM 44.9660 -59.7150 68° East 540 621 33,000  Level FlightAware
11:03PM 44.9980 -59.5970 69° East 539 620 33,000  Level FlightAware
11:03PM 45.0290 -59.4860 68° East 538 619 33,000  Level FlightAware
11:04PM 45.0630 -59.3610 69° East 537 618 33,000  Level FlightAware
11:05PM 45.0950 -59.2440 69° East 536 617 33,000  Level FlightAware
11:05PM 45.1230 -59.1420 69° East 535 616 33,000  Level FlightAware
11:06PM 45.1540 -59.0250 69° East 534 615 33,000  Level FlightAware
11:06PM 45.1850 -58.9100 69° East 533 613 33,000  Level FlightAware
11:07PM 45.2150 -58.7990 69° East 533 613 33,000  Level FlightAware
11:07PM 45.2480 -58.6750 69° East 533 613 33,000  Level FlightAware
11:08PM 45.2760 -58.5670 70° East 534 615 33,000  Level FlightAware
11:09PM 45.3070 -58.4490 69° East 536 617 33,000  Level FlightAware
11:09PM 45.3350 -58.3430 69° East 537 618 33,000  Level FlightAware
11:10PM 45.3670 -58.2200 70° East 537 618 33,000  Level FlightAware
11:10PM 45.3970 -58.1040 70° East 536 617 33,000  Level FlightAware
11:11PM 45.4170 -58.0280 69° East 536 617 33,000  Level FlightAware
11:12PM 45.4570 -57.8730 70° East 535 616 33,000  Level FlightAware
11:12PM 45.4820 -57.7730 70° East 534 615 33,000  Level FlightAware
11:13PM 45.5110 -57.6610 70° East 534 615 33,000  Level FlightAware
11:13PM 45.5370 -57.5570 70° East 534 615 33,000  Level FlightAware
11:14PM 45.5640 -57.4520 70° East 534 615 33,000  Level FlightAware
11:15PM 45.6080 -57.2750 70° East 529 609 33,000  Level FlightAware
11:15PM 45.6360 -57.1630 70° East 529 609 33,000  Level FlightAware
11:16PM 45.6660 -57.0410 71° East 530 610 33,000  Level FlightAware
11:16PM 45.6920 -56.9290 72° East 530 610 33,000  Level FlightAware
11:17PM 45.7220 -56.7950 72° East 531 611 33,000  Level FlightAware
11:18PM 45.7590 -56.6210 73° East 531 611 33,000  Level FlightAware
11:18PM 45.7860 -56.5000 72° East 531 611 33,000  Level FlightAware
11:19PM 45.8090 -56.3930 73° East 531 611 33,000  Level FlightAware
11:20PM 45.8360 -56.2720 72° East 531 611 33,000  Level FlightAware
11:20PM 45.8630 -56.1480 73° East 530 610 33,000  Level FlightAware
11:21PM 45.8870 -56.0370 73° East 530 610 33,000  Level FlightAware
11:21PM 45.9170 -55.8960 73° East 531 611 33,000  Level FlightAware
11:22PM 45.9430 -55.7710 73° East 532 612 33,000  Level FlightAware
11:23PM 45.9700 -55.6470 73° East 531 611 33,000  Level FlightAware
11:23PM 45.9930 -55.5420 72° East 532 612 33,000  Level FlightAware
11:24PM 46.0190 -55.4170 73° East 530 610 33,000  Level FlightAware
11:24PM 46.0410 -55.3060 74° East 529 609 33,000  Level FlightAware
11:25PM 46.0660 -55.1880 73° East 528 608 33,000  Level FlightAware
11:26PM 46.0910 -55.0630 74° East 529 609 33,000  Level FlightAware
11:26PM 46.1170 -54.9380 73° East 530 610 33,000  Level FlightAware
11:27PM 46.1390 -54.8290 74° East 531 611 33,000  Level FlightAware
11:27PM 46.1630 -54.7100 74° East 531 611 33,000  Level FlightAware
11:28PM 46.1860 -54.5940 74° East 532 612 33,000  Level FlightAware
11:28PM 46.2110 -54.4680 74° East 532 612 33,000  Level FlightAware
11:29PM 46.2320 -54.3630 74° East 531 611 33,000  Level FlightAware
11:30PM 46.2570 -54.2360 74° East 531 611 33,000  Level FlightAware
11:30PM 46.2810 -54.1140 74° East 530 610 33,000  Level FlightAware
11:31PM 46.3040 -53.9950 74° East 530 610 33,000  Level FlightAware
11:31PM 46.3290 -53.8690 74° East 529 609 33,000  Level FlightAware
11:32PM 46.3490 -53.7630 75° East 530 610 33,000  Level FlightAware
11:33PM 46.3740 -53.6330 74° East 529 609 33,000  Level FlightAware
11:33PM 46.3970 -53.5140 74° East 529 609 33,000  Level FlightAware
11:34PM 46.4180 -53.4010 75° East 529 609 33,000  Level FlightAware
11:34PM 46.4410 -53.2780 75° East 529 609 33,000  Level FlightAware
11:35PM 46.4630 -53.1580 75° East 530 610 33,000  Level FlightAware
11:35PM 46.4840 -53.0490 74° East 531 611 33,000  Level FlightAware
11:36PM 46.5080 -52.9140 75° East 532 612 33,000  Level FlightAware
11:37PM 46.5280 -52.8040 75° East 531 611 33,000  Level FlightAware
11:37PM 46.5520 -52.6730 75° East 531 611 33,000  Level FlightAware
11:38PM 46.5740 -52.5520 75° East 531 611 33,000  Level FlightAware
11:38PM 46.5960 -52.4280 75° East 531 611 33,000  Level FlightAware
11:39PM 46.6160 -52.3170 75° East 531 611 33,000  Level FlightAware
11:39PM 46.6360 -52.2000 76° East 531 611 33,000  Level FlightAware
11:40PM 46.6600 -52.0680 75° East 532 612 33,000  Level FlightAware
11:41PM 46.6810 -51.9470 76° East 531 611 33,000  Level FlightAware
11:41PM 46.7010 -51.8330 76° East 530 610 33,000  Level FlightAware
11:42PM 46.7220 -51.7050 76° East 529 609 33,000  Level FlightAware
11:42PM 46.7430 -51.5870 75° East 529 609 33,000  Level FlightAware
11:43PM 46.7630 -51.4700 76° East 529 609 33,000  Level FlightAware
11:44PM 46.7830 -51.3450 77° East 529 609 33,000  Level FlightAware
11:44PM 46.8040 -51.2200 76° East 528 608 33,000  Level FlightAware
11:45PM 46.8250 -51.0960 76° East 528 608 33,000  Level FlightAware
11:45PM 46.8480 -50.9570 76° East 529 609 33,000  Level FlightAware
11:46PM 46.8640 -50.8560 77° East 529 609 33,000  Level FlightAware
11:47PM 46.8870 -50.7200 76° East 528 608 33,000  Level FlightAware
11:47PM 46.9060 -50.6110 76° East 528 608 33,000  Level FlightAware
11:48PM 46.9230 -50.5110 76° East 528 608 33,000  Level FlightAware
11:48PM 46.9410 -50.4050 76° East 528 608 33,000  Level FlightAware
11:49PM 46.9670 -50.2130 79° East 530 610 33,000  Level FlightAware
11:50PM 46.9880 -50.0770 77° East 530 610 33,000  Level FlightAware
11:50PM 47.0070 -49.9540 77° East 530 610 33,000  Level FlightAware
11:51PM 47.0240 -49.8390 78° East 530 610 33,000  Level FlightAware
11:51PM 47.0420 -49.7120 78° East 530 610 33,000  Level FlightAware
11:52PM 47.0610 -49.5790 78° East 529 609 33,000  Level FlightAware
11:53PM 47.0760 -49.4730 78° East 528 608 33,000  Level FlightAware
11:53PM 47.0940 -49.3470 78° East 528 608 33,000  Level FlightAware
11:54PM 47.1120 -49.2170 78° East 527 606 33,000  Level FlightAware
11:54PM 47.1300 -49.0880 78° East 527 606 33,000  Level FlightAware
11:55PM 47.1460 -48.9650 79° East 528 608 33,000  Level FlightAware
11:55PM 47.1620 -48.8530 78° East 527 606 33,000  Level FlightAware
11:56PM 47.1780 -48.7400 78° East 527 606 33,000  Level FlightAware
11:57PM 47.1930 -48.6330 78° East 527 606 33,000  Level FlightAware
11:57PM 47.2130 -48.4800 79° East 528 608 33,000  Level FlightAware
11:58PM 47.2280 -48.3780 78° East 528 608 33,000  Level FlightAware
11:59PM 47.2430 -48.2700 78° East 528 608 33,000  Level FlightAware
11:59PM 47.2600 -48.1570 77° East 528 608 33,000  Level FlightAware
12:00AM 47.2750 -48.0490 78° East 528 608 33,000  Level FlightAware
12:00AM 47.2910 -47.9410 78° East 528 608 33,000  Level FlightAware
12:01AM 47.3060 -47.8330 78° East 528 608 33,000  Level FlightAware
12:02AM 47.3220 -47.7250 78° East 528 608 33,000  Level FlightAware
12:02AM 47.3370 -47.6170 78° East 528 608 33,000  Level FlightAware
12:03AM 47.3530 -47.5100 78° East 528 608 33,000  Level FlightAware
12:03AM 47.3680 -47.4020 78° East 528 608 33,000  Level FlightAware
12:04AM 47.3840 -47.2940 78° East 528 608 33,000  Level FlightAware
12:05AM 47.4000 -47.1830 78° East 528 608 33,000  Level FlightAware
12:05AM 47.4150 -47.0750 78° East 528 608 33,000  Level FlightAware
12:06AM 47.4320 -46.9610 78° East 528 608 33,000  Level FlightAware
12:07AM 47.4520 -46.8220 78° East 528 608 33,000  Level FlightAware
12:13AM 47.5781 -45.5707 81° East  Level FlightAware Approximate
12:14AM 47.5981 -45.3580 82° East  Level FlightAware Approximate
12:15AM 47.6177 -45.1451 82° East  Level FlightAware Approximate
12:16AM 47.6369 -44.9322 82° East  Level FlightAware Approximate
12:17AM 47.6558 -44.7190 82° East  Level FlightAware Approximate
12:18AM 47.6742 -44.5057 83° East  Level FlightAware Approximate
12:19AM 47.6923 -44.2923 83° East  Level FlightAware Approximate
12:20AM 47.7099 -44.0787 83° East  Level FlightAware Approximate
12:21AM 47.7272 -43.8649 83° East  Level FlightAware Approximate
12:22AM 47.7440 -43.6510 83° East  Level FlightAware Approximate
12:23AM 47.7605 -43.4370 83° East  Level FlightAware Approximate
12:24AM 47.7765 -43.2229 84° East  Level FlightAware Approximate
12:25AM 47.7922 -43.0086 84° East  Level FlightAware Approximate
12:26AM 47.8074 -42.7942 84° East  Level FlightAware Approximate
12:27AM 47.8223 -42.5797 84° East  Level FlightAware Approximate
12:28AM 47.8375 -42.3647 83° East  Level FlightAware Approximate
12:29AM 47.8542 -42.1504 83° East  Level FlightAware Approximate
12:30AM 47.8706 -41.9359 83° East  Level FlightAware Approximate
12:31AM 47.8866 -41.7213 84° East  Level FlightAware Approximate
12:32AM 47.9022 -41.5065 84° East  Level FlightAware Approximate
12:33AM 47.9174 -41.2916 84° East  Level FlightAware Approximate
12:34AM 47.9321 -41.0766 84° East  Level FlightAware Approximate
12:35AM 47.9465 -40.8615 84° East  Level FlightAware Approximate
12:36AM 47.9605 -40.6463 84° East  Level FlightAware Approximate
12:37AM 47.9741 -40.4309 85° East  Level FlightAware Approximate
12:38AM 47.9872 -40.2154 85° East  Level FlightAware Approximate
12:39AM 48.0000 -39.9999 78° East  Level FlightAware Approximate
12:40AM 48.0297 -39.7880 78° East  Level FlightAware Approximate
12:41AM 48.0589 -39.5758 78° East  Level FlightAware Approximate
12:42AM 48.0878 -39.3634 78° East  Level FlightAware Approximate
12:43AM 48.1163 -39.1508 79° East  Level FlightAware Approximate
12:44AM 48.1444 -38.9379 79° East  Level FlightAware Approximate
12:45AM 48.1722 -38.7248 79° East  Level FlightAware Approximate
12:46AM 48.2001 -38.5117 79° East  Level FlightAware Approximate
12:47AM 48.2276 -38.2983 79° East  Level FlightAware Approximate
12:48AM 48.2547 -38.0846 79° East  Level FlightAware Approximate
12:49AM 48.2815 -37.8708 79° East  Level FlightAware Approximate
12:50AM 48.3078 -37.6567 79° East  Level FlightAware Approximate
12:51AM 48.3337 -37.4425 80° East  Level FlightAware Approximate
12:52AM 48.3593 -37.2280 80° East  Level FlightAware Approximate
12:53AM 48.3844 -37.0133 80° East  Level FlightAware Approximate
12:54AM 48.4091 -36.7983 80° East  Level FlightAware Approximate
12:55AM 48.4334 -36.5832 80° East  Level FlightAware Approximate
12:56AM 48.4574 -36.3679 80° East  Level FlightAware Approximate
12:57AM 48.4813 -36.1524 80° East  Level FlightAware Approximate
12:58AM 48.5051 -35.9369 80° East  Level FlightAware Approximate
12:59AM 48.5284 -35.7211 81° East  Level FlightAware Approximate
01:00AM 48.5513 -35.5051 81° East  Level FlightAware Approximate
01:01AM 48.5739 -35.2889 81° East  Level FlightAware Approximate
01:02AM 48.5960 -35.0726 81° East  Level FlightAware Approximate
01:03AM 48.6179 -34.8560 81° East  Level FlightAware Approximate
01:04AM 48.6395 -34.6393 81° East  Level FlightAware Approximate
01:05AM 48.6606 -34.4225 82° East  Level FlightAware Approximate
01:06AM 48.6814 -34.2054 82° East  Level FlightAware Approximate
01:07AM 48.7017 -33.9882 82° East  Level FlightAware Approximate
01:08AM 48.7216 -33.7708 82° East  Level FlightAware Approximate
01:09AM 48.7411 -33.5532 82° East  Level FlightAware Approximate
01:10AM 48.7602 -33.3355 82° East  Level FlightAware Approximate
01:11AM 48.7789 -33.1176 83° East  Level FlightAware Approximate
01:12AM 48.7971 -32.8995 83° East  Level FlightAware Approximate
01:13AM 48.8150 -32.6813 83° East  Level FlightAware Approximate
01:14AM 48.8324 -32.4629 83° East  Level FlightAware Approximate
01:15AM 48.8495 -32.2444 83° East  Level FlightAware Approximate
01:16AM 48.8661 -32.0257 83° East  Level FlightAware Approximate
01:17AM 48.8823 -31.8069 83° East  Level FlightAware Approximate
01:18AM 48.8981 -31.5879 84° East  Level FlightAware Approximate
01:19AM 48.9135 -31.3688 84° East  Level FlightAware Approximate
01:20AM 48.9285 -31.1496 84° East  Level FlightAware Approximate
01:21AM 48.9430 -30.9302 84° East  Level FlightAware Approximate
01:22AM 48.9571 -30.7108 84° East  Level FlightAware Approximate
01:23AM 48.9709 -30.4911 84° East  Level FlightAware Approximate
01:24AM 48.9841 -30.2714 85° East  Level FlightAware Approximate
01:25AM 48.9970 -30.0516 85° East  Level FlightAware Approximate
01:26AM 49.0239 -29.8350 77° East  Level FlightAware Approximate
01:27AM 49.0549 -29.6191 78° East  Level FlightAware Approximate
01:28AM 49.0854 -29.4030 78° East  Level FlightAware Approximate
01:29AM 49.1155 -29.1867 78° East  Level FlightAware Approximate
01:30AM 49.1452 -28.9700 78° East  Level FlightAware Approximate
01:30AM 49.0000 -30.0000 77° East 525 604 33,000  Level ETMS Enhanced Traffic Management System
01:31AM 49.1746 -28.7532 78° East  Level FlightAware Approximate
01:32AM 49.2034 -28.5364 78° East  Level FlightAware Approximate
01:33AM 49.2319 -28.3194 79° East  Level FlightAware Approximate
01:34AM 49.2599 -28.1021 79° East  Level FlightAware Approximate
01:35AM 49.2876 -27.8846 79° East  Level FlightAware Approximate
01:36AM 49.2685 -28.0353 79° East 525 604 33,000  Level FlightAware Transoceanic
01:37AM 49.2962 -27.8157 79° East 525 604 33,000  Level FlightAware Transoceanic
01:38AM 49.3236 -27.5959 79° East 525 604 33,000  Level FlightAware Transoceanic
01:39AM 49.3505 -27.3758 79° East 525 604 33,000  Level FlightAware Transoceanic
01:40AM 49.3770 -27.1555 80° East 525 604 33,000  Level FlightAware Transoceanic
01:41AM 49.4031 -26.9349 80° East 525 604 33,000  Level FlightAware Transoceanic
01:42AM 49.4288 -26.7142 80° East 525 604 33,000  Level FlightAware Transoceanic
01:43AM 49.4540 -26.4932 80° East 525 604 33,000  Level FlightAware Transoceanic
01:44AM 49.4788 -26.2719 80° East 525 604 33,000  Level FlightAware Transoceanic
01:45AM 49.5033 -26.0504 80° East 525 604 33,000  Level FlightAware Transoceanic
01:46AM 49.5272 -25.8288 81° East 525 604 33,000  Level FlightAware Transoceanic
01:47AM 49.5508 -25.6069 81° East 525 604 33,000  Level FlightAware Transoceanic
01:48AM 49.5739 -25.3848 81° East 525 604 33,000  Level FlightAware Transoceanic
01:49AM 49.5966 -25.1625 81° East 525 604 33,000  Level FlightAware Transoceanic
01:50AM 49.6189 -24.9399 81° East 525 604 33,000  Level FlightAware Transoceanic
01:51AM 49.6408 -24.7172 81° East 525 604 33,000  Level FlightAware Transoceanic
01:52AM 49.6622 -24.4943 82° East 525 604 33,000  Level FlightAware Transoceanic
01:53AM 49.6832 -24.2712 82° East 525 604 33,000  Level FlightAware Transoceanic
01:54AM 49.7038 -24.0479 82° East 525 604 33,000  Level FlightAware Transoceanic
01:55AM 49.7239 -23.8244 82° East 525 604 33,000  Level FlightAware Transoceanic
01:56AM 49.7436 -23.6007 82° East 525 604 33,000  Level FlightAware Transoceanic
01:57AM 49.7629 -23.3768 82° East 525 604 33,000  Level FlightAware Transoceanic
01:58AM 49.7818 -23.1528 83° East 525 604 33,000  Level FlightAware Transoceanic
01:59AM 49.8002 -22.9286 83° East 525 604 33,000  Level FlightAware Transoceanic
02:00AM 49.8182 -22.7042 83° East 525 604 33,000  Level FlightAware Transoceanic
02:01AM 49.8357 -22.4797 83° East 525 604 33,000  Level FlightAware Transoceanic
02:02AM 49.8528 -22.2550 83° East 525 604 33,000  Level FlightAware Transoceanic
02:03AM 49.8695 -22.0301 84° East 525 604 33,000  Level FlightAware Transoceanic
02:04AM 49.8858 -21.8051 84° East 525 604 33,000  Level FlightAware Transoceanic
02:05AM 49.9016 -21.5800 84° East 525 604 33,000  Level FlightAware Transoceanic
02:06AM 49.9169 -21.3547 84° East 525 604 33,000  Level FlightAware Transoceanic
02:07AM 49.9319 -21.1292 84° East 525 604 33,000  Level FlightAware Transoceanic
02:08AM 49.9464 -20.9036 84° East 525 604 33,000  Level FlightAware Transoceanic
02:09AM 49.9604 -20.6779 85° East 525 604 33,000  Level FlightAware Transoceanic
02:10AM 49.9741 -20.4521 85° East 525 604 33,000  Level FlightAware Transoceanic
02:11AM 49.9873 -20.2261 85° East 525 604 33,000  Level FlightAware Transoceanic
02:12AM 49.9999 -20.0021 85° East  Level FlightAware Approximate
02:13AM 50.0116 -19.7779 85° East  Level FlightAware Approximate
02:14AM 49.9931 -19.7795 93° East  Level FlightAware Approximate
02:15AM 49.9856 -19.5549 93° East  Level FlightAware Approximate
02:16AM 49.9776 -19.3304 93° East  Level FlightAware Approximate
02:17AM 49.9693 -19.1064 93° East  Level FlightAware Approximate
02:18AM 49.9605 -18.8825 93° East  Level FlightAware Approximate
02:19AM 49.9513 -18.6586 94° East  Level FlightAware Approximate
02:20AM 49.9417 -18.4348 94° East  Level FlightAware Approximate
02:21AM 49.9316 -18.2111 94° East  Level FlightAware Approximate
02:22AM 49.9211 -17.9875 94° East  Level FlightAware Approximate
02:23AM 49.9102 -17.7640 94° East  Level FlightAware Approximate
02:24AM 49.8988 -17.5406 94° East  Level FlightAware Approximate
02:25AM 49.8870 -17.3174 95° East  Level FlightAware Approximate
02:26AM 49.8748 -17.0942 95° East  Level FlightAware Approximate
02:27AM 49.8622 -16.8711 95° East  Level FlightAware Approximate
02:28AM 49.8491 -16.6482 95° East  Level FlightAware Approximate
02:29AM 49.8356 -16.4254 95° East  Level FlightAware Approximate
02:30AM 49.8217 -16.2027 95° East  Level FlightAware Approximate
02:31AM 49.8074 -15.9801 96° East  Level FlightAware Approximate
02:32AM 49.7926 -15.7577 96° East  Level FlightAware Approximate
02:33AM 49.7774 -15.5354 96° East  Level FlightAware Approximate
02:34AM 49.7617 -15.3132 96° East  Level FlightAware Approximate
02:35AM 49.7457 -15.0913 96° East  Level FlightAware Approximate
02:36AM 49.7292 -14.8694 96° East  Level FlightAware Approximate
02:37AM 49.7123 -14.6477 97° East  Level FlightAware Approximate
02:38AM 49.6950 -14.4262 97° East  Level FlightAware Approximate
02:39AM 49.6773 -14.2048 97° East  Level FlightAware Approximate
02:40AM 49.6591 -13.9836 97° East  Level FlightAware Approximate
02:41AM 49.6405 -13.7625 97° East  Level FlightAware Approximate
02:42AM 49.6215 -13.5416 97° East  Level FlightAware Approximate
02:43AM 49.6021 -13.3209 98° East  Level FlightAware Approximate
02:44AM 49.5822 -13.1004 98° East  Level FlightAware Approximate
02:45AM 49.5620 -12.8800 98° East  Level FlightAware Approximate
02:46AM 49.5413 -12.6599 98° East  Level FlightAware Approximate
02:47AM 49.5202 -12.4399 98° East  Level FlightAware Approximate
02:48AM 49.4987 -12.2201 98° East  Level FlightAware Approximate
02:49AM 49.4767 -12.0005 99° East  Level FlightAware Approximate
02:50AM 49.4544 -11.7811 99° East  Level FlightAware Approximate
02:51AM 49.4316 -11.5619 99° East  Level FlightAware Approximate
02:52AM 49.4084 -11.3429 99° East  Level FlightAware Approximate
02:53AM 49.3848 -11.1242 99° East  Level FlightAware Approximate
02:54AM 49.3609 -10.9056 99° East  Level FlightAware Approximate
02:55AM 49.3364 -10.6872 100° East  Level FlightAware Approximate
02:55AM 49.4320 -10.2260 100° East 558 642 35,000  Level FlightAware
02:56AM 49.3116 -10.4691 100° East  Level FlightAware Approximate
02:56AM 49.4140 -10.1050 103° East 558 642 35,000  Level FlightAware
02:57AM 49.3900 -9.9520 103° East 562 647 35,000  Level FlightAware
02:57AM 49.3660 -9.7970 103° East 562 647 35,000  Level FlightAware
02:58AM 49.3470 -9.6770 104° East 562 647 35,000  Level FlightAware
02:58AM 49.3290 -9.5570 103° East 562 647 35,000  Level FlightAware
02:59AM 49.3030 -9.3940 104° East 563 648 35,000  Level FlightAware
02:59AM 49.2820 -9.2710 105° East 562 647 35,000  Level FlightAware
03:00AM 49.2590 -9.1320 104° East 563 648 35,000  Level FlightAware
03:01AM 49.2370 -8.9970 104° East 564 649 35,000  Level FlightAware
03:01AM 49.2154 -8.8602 104° East 488 562 35,000  Level FlightAware UK
03:01AM 49.2150 -8.8620 104° East 566 651 35,000  Level FlightAware
03:02AM 49.1940 -8.7340 104° East 567 652 35,000  Level FlightAware
03:02AM 49.1670 -8.5750 105° East 566 651 35,000  Level FlightAware
03:03AM 49.1450 -8.4480 105° East 567 652 35,000  Level FlightAware
03:04AM 49.1230 -8.3200 105° East 567 652 35,000  Level FlightAware
03:04AM 49.1000 -8.1810 104° East 567 652 35,000  Level FlightAware
03:05AM 49.0770 -8.0472 104° East 486 559 35,000  Level FlightAware UK
03:05AM 49.0750 -8.0420 104° East 567 652 35,000  Level FlightAware
03:05AM 49.0540 -7.9180 104° East 569 655 35,000  Level FlightAware
03:05AM 49.0525 -7.9076 104° East 490 564 35,000  Level FlightAware UK
03:06AM 49.0320 -7.7917 104° East 488 562 35,000  Level FlightAware UK
03:06AM 49.0290 -7.7750 104° East 568 654 35,000  Level FlightAware
03:07AM 49.0030 -7.6280 105° East 568 654 35,000  Level FlightAware
03:07AM 48.9700 -7.4960 111° Southeast 554 638 35,000  Level FlightAware
03:08AM 48.9350 -7.3840 115° Southeast 551 634 35,000  Level FlightAware
03:08AM 48.8980 -7.2600 114° Southeast 550 633 35,000  Level FlightAware
03:09AM 48.8593 -7.1381 114° Southeast 484 557 35,000  Level FlightAware UK
03:09AM 48.8570 -7.1360 114° Southeast 547 629 35,000  Level FlightAware
03:09AM 48.8170 -7.0160 117° Southeast 548 631 35,000  Level FlightAware
03:10AM 48.7800 -6.9030 116° Southeast 550 633 35,000  Level FlightAware
03:11AM 48.7450 -6.8000 117° Southeast 551 634 35,000  Level FlightAware
03:11AM 48.7020 -6.6680 116° Southeast 552 635 35,000  Level FlightAware
03:12AM 48.6600 -6.5400 116° Southeast 554 638 35,000  Level FlightAware
03:12AM 48.6201 -6.4155 116° Southeast 490 564 35,000  Level FlightAware UK
03:12AM 48.6190 -6.4150 116° Southeast 555 639 35,000  Level FlightAware
03:13AM 48.5770 -6.2910 117° Southeast 554 638 35,000  Level FlightAware
03:14AM 48.5430 -6.1870 116° Southeast 554 638 35,000  Level FlightAware
03:14AM 48.5021 -6.0626 116° Southeast 488 562 35,000  Level FlightAware UK
03:14AM 48.5000 -6.0600 116° Southeast 554 638 35,000  Level FlightAware
03:15AM 48.4620 -5.9460 117° Southeast 554 638 35,000  Level FlightAware
03:15AM 48.4190 -5.8190 117° Southeast 554 638 35,000  Level FlightAware
03:16AM 48.3750 -5.6930 118° Southeast 554 638 35,000  Level FlightAware
03:16AM 48.3370 -5.5800 117° Southeast 556 640 35,000  Level FlightAware
03:17AM 48.2960 -5.4630 118° Southeast 559 643 35,000  Level FlightAware
03:18AM 48.2560 -5.3460 117° Southeast 560 644 35,000  Level FlightAware
03:18AM 48.2060 -5.2050 118° Southeast 562 647 35,000  Level FlightAware
03:19AM 48.1690 -5.1020 118° Southeast 563 648 35,000  Level FlightAware
03:19AM 48.1300 -4.9880 117° Southeast 564 649 35,000  Level FlightAware
03:20AM 48.0820 -4.8530 118° Southeast 565 650 35,000  Level FlightAware
03:21AM 48.0360 -4.7260 118° Southeast 565 650 35,000  Level FlightAware
03:21AM 47.9970 -4.6160 118° Southeast 565 650 35,000  Level FlightAware
03:22AM 47.9520 -4.4880 118° Southeast 564 649 35,000  Level FlightAware
03:22AM 47.9519 -4.4885 253° West 564 649 35,000  Level FlightAware ADS-B (LFBU / ANG)
03:23AM 47.8690 -4.2600 118° Southeast 562 647 35,000  Level FlightAware
03:23AM 47.8200 -4.1240 118° Southeast 562 647 35,000  Level FlightAware
03:24AM 47.7920 -4.0491 119° Southeast 559 643 35,000  Level FlightAware ADS-B (LFBU / ANG)
03:24AM 47.7475 -3.9273 118° Southeast 563 648 35,000  Level FlightAware ADS-B (LFBU / ANG)
03:25AM 47.6950 -3.7820 118° Southeast 562 647 35,000  Level FlightAware
03:26AM 47.6716 -3.7208 120° Southeast 563 648 35,000  Level FlightAware ADS-B (LFBU / ANG)
03:26AM 47.6080 -3.5490 119° Southeast 562 647 35,000  Level FlightAware
03:27AM 47.5640 -3.4310 119° Southeast 560 644 35,000  Level FlightAware
03:28AM 47.5180 -3.3070 119° Southeast 561 646 35,000  Level FlightAware
03:28AM 47.5218 -3.3173 298° West 562 647 35,000  Level FlightAware ADS-B (LFBU / ANG)
03:29AM 47.4322 -3.0830 119° Southeast 562 647 35,000  Level FlightAware ADS-B (LFBU / ANG)
03:29AM 47.3820 -2.9490 119° Southeast 562 647 35,000  Level FlightAware
03:30AM 47.3562 -2.8824 120° Southeast 563 648 35,000  Level FlightAware ADS-B (LFBU / ANG)
03:30AM 47.2930 -2.7150 119° Southeast 564 649 35,000  Level FlightAware
03:31AM 47.2822 -2.6885 121° Southeast 565 650 35,000  Level FlightAware ADS-B (LFBU / ANG)
03:31AM 47.2416 -2.5850 120° Southeast 564 649 35,000  Level FlightAware ADS-B (LFBU / ANG)
03:32AM 47.1590 -2.3720 120° Southeast 564 649 35,000  Level FlightAware
03:33AM 47.1130 -2.2530 120° Southeast 563 648 35,000  Level FlightAware
03:33AM 47.0650 -2.1300 120° Southeast 563 648 35,000  Level FlightAware
03:34AM 47.0270 -2.0340 120° Southeast 564 649 35,000  Level FlightAware
03:35AM 46.9770 -1.9090 120° Southeast 562 647 35,000  Level FlightAware
03:35AM 46.9290 -1.7870 120° Southeast 561 646 35,000  Level FlightAware
03:36AM 46.8840 -1.6730 120° Southeast 562 647 35,000  Level FlightAware
03:36AM 46.8390 -1.5610 120° Southeast 562 647 35,000  Level FlightAware
03:37AM 46.7930 -1.4470 120° Southeast 562 647 35,000  Level FlightAware
03:37AM 46.7450 -1.3290 121° Southeast 561 646 35,000  Level FlightAware
03:38AM 46.6990 -1.2120 120° Southeast 564 649 35,000  Level FlightAware
03:39AM 46.6640 -1.0880 112° Southeast 570 656 35,000  Level FlightAware
03:39AM 46.6320 -0.9700 112° Southeast 571 657 35,000  Level FlightAware
03:40AM 46.5900 -0.8210 112° Southeast 571 657 35,000  Level FlightAware
03:41AM 46.5560 -0.6880 110° East 573 659 35,000  Level FlightAware
03:41AM 46.5240 -0.5660 111° Southeast 573 659 35,000  Level FlightAware
03:42AM 46.4920 -0.4480 111° Southeast 572 658 35,000  Level FlightAware
03:42AM 46.4600 -0.3270 111° Southeast 572 658 35,000  Level FlightAware
03:43AM 46.4250 -0.1980 111° Southeast 572 658 35,000  Level FlightAware
03:43AM 46.3850 -0.0650 114° Southeast 570 656 35,000  Level FlightAware
03:44AM 46.3460 0.0470 117° Southeast 569 655 35,000  Level FlightAware
03:45AM 46.3050 0.1660 116° Southeast 569 655 35,000  Level FlightAware
03:45AM 46.2620 0.2840 118° Southeast 569 655 35,000  Level FlightAware
03:46AM 46.2180 0.4090 117° Southeast 569 655 35,000  Level FlightAware
03:46AM 46.1800 0.5130 118° Southeast 569 655 35,000  Level FlightAware
03:47AM 46.1350 0.6370 118° Southeast 569 655 35,000  Level FlightAware
03:47AM 46.0920 0.7550 118° Southeast 570 656 35,000  Level FlightAware
03:48AM 46.0470 0.8790 118° Southeast 569 655 35,000  Level FlightAware
03:49AM 46.0060 0.9890 118° Southeast 570 656 35,000  Level FlightAware
03:49AM 45.9610 1.1100 118° Southeast 570 656 35,000  Level FlightAware
03:50AM 45.9200 1.2160 119° Southeast 570 656 35,000  Level FlightAware
03:50AM 45.8760 1.3360 118° Southeast 570 656 35,000  Level FlightAware
03:51AM 45.8300 1.4560 119° Southeast 570 656 35,000  Level FlightAware
03:52AM 45.7840 1.5780 118° Southeast 571 657 35,000  Level FlightAware
03:52AM 45.7440 1.6810 119° Southeast 571 657 35,000  Level FlightAware
03:53AM 45.7030 1.8070 115° Southeast 575 662 35,000  Level FlightAware
03:53AM 45.6720 1.9330 109° East 575 662 35,000  Level FlightAware
03:54AM 45.6400 2.0660 109° East 575 662 35,000  Level FlightAware
03:54AM 45.6170 2.1670 108° East 575 662 35,000  Level FlightAware
03:55AM 45.5860 2.3120 107° East 575 662 35,000  Level FlightAware
03:56AM 45.5590 2.4390 107° East 575 662 35,000  Level FlightAware
03:56AM 45.5300 2.5730 107° East 574 661 35,000  Level FlightAware
03:57AM 45.5050 2.6810 108° East 573 659 35,000  Level FlightAware
03:57AM 45.4770 2.8090 107° East 571 657 35,000  Level FlightAware
03:58AM 45.4460 2.9420 108° East 571 657 35,000  Level FlightAware
03:59AM 45.4180 3.0630 108° East 571 657 35,000 420 Level FlightAware
03:59AM 45.3900 3.1850 108° East 573 659 35,500 1,020 Climbing FlightAware
04:00AM 45.3600 3.3130 108° East 575 662 36,200 1,080 Climbing FlightAware
04:00AM 45.3290 3.4460 108° East 574 661 36,800 660 Climbing FlightAware
04:01AM 45.3020 3.5600 109° East 575 662 37,000 120 Climbing FlightAware
04:01AM 45.2710 3.6920 108° East 573 659 37,000  Level FlightAware
04:02AM 45.2420 3.8170 108° East 571 657 37,000  Level FlightAware
04:03AM 45.2170 3.9430 106° East 570 656 37,000  Level FlightAware
04:03AM 45.1930 4.0610 106° East 569 655 37,000  Level FlightAware
04:04AM 45.1660 4.1970 106° East 567 652 37,000  Level FlightAware
04:04AM 45.1410 4.3180 106° East 566 651 37,000  Level FlightAware
04:05AM 45.1130 4.4250 110° East 564 649 37,000  Level FlightAware
04:05AM 45.0730 4.5120 123° Southeast 559 643 37,000  Level FlightAware
04:06AM 45.0220 4.5980 130° Southeast 556 640 37,000  Level FlightAware
04:07AM 44.9600 4.6960 132° Southeast 554 638 37,000  Level FlightAware
04:07AM 44.9010 4.7940 130° Southeast 554 638 37,000  Level FlightAware
04:08AM 44.8470 4.8810 131° Southeast 552 635 37,000  Level FlightAware
04:08AM 44.7820 4.9830 132° Southeast 554 638 37,000  Level FlightAware
04:09AM 44.7220 5.0780 132° Southeast 554 638 37,000  Level FlightAware
04:09AM 44.6650 5.1700 131° Southeast 552 635 37,000  Level FlightAware
04:10AM 44.6110 5.2610 130° Southeast 557 641 37,000  Level FlightAware
04:11AM 44.5590 5.3770 122° Southeast 558 642 37,000  Level FlightAware
04:11AM 44.5090 5.4870 122° Southeast 559 643 37,000  Level FlightAware
04:12AM 44.4600 5.5970 122° Southeast 558 642 37,000  Level FlightAware
04:12AM 44.4150 5.6940 123° Southeast 560 644 37,000  Level FlightAware
04:13AM 44.3670 5.8010 122° Southeast 561 646 37,000  Level FlightAware
04:14AM 44.3170 5.9080 123° Southeast 563 648 37,000  Level FlightAware
04:14AM 44.2720 6.0050 123° Southeast 562 647 37,000  Level FlightAware
04:15AM 44.2200 6.1180 123° Southeast 563 648 37,000  Level FlightAware
04:15AM 44.1700 6.2280 122° Southeast 562 647 37,000  Level FlightAware
04:16AM 44.1230 6.3280 123° Southeast 561 646 37,000  Level FlightAware
04:16AM 44.0710 6.4370 124° Southeast 565 650 37,000  Level FlightAware
04:17AM 44.0230 6.5410 123° Southeast 568 654 37,000  Level FlightAware
04:18AM 43.9700 6.6540 123° Southeast 568 654 37,000  Level FlightAware
04:18AM 43.9270 6.7450 123° Southeast 563 648 37,000  Level FlightAware
04:19AM 43.8600 6.8840 124° Southeast 566 651 37,000  Level FlightAware
04:19AM 43.8120 6.9870 123° Southeast 567 652 37,000  Level FlightAware
04:20AM 43.7580 7.0990 124° Southeast 568 654 37,000  Level FlightAware
04:21AM 43.7130 7.1930 123° Southeast 568 654 37,000  Level FlightAware
04:21AM 43.6640 7.2960 123° Southeast 569 655 37,000  Level FlightAware
04:22AM 43.6030 7.4200 124° Southeast 570 656 37,000  Level FlightAware
04:22AM 43.5580 7.5140 123° Southeast 571 657 37,000  Level FlightAware
04:23AM 43.5040 7.6250 124° Southeast 571 657 37,000  Level FlightAware
04:24AM 43.4510 7.7340 124° Southeast 569 655 37,000  Level FlightAware
04:24AM 43.3980 7.8420 124° Southeast 571 657 37,000  Level FlightAware
04:25AM 43.3520 7.9350 124° Southeast 570 656 37,000  Level FlightAware
04:25AM 43.2950 8.0520 124° Southeast 571 657 37,000  Level FlightAware
04:26AM 43.2450 8.1510 125° Southeast 571 657 37,000  Level FlightAware
04:26AM 43.1960 8.2490 124° Southeast 570 656 37,000  Level FlightAware
04:27AM 43.1410 8.3590 124° Southeast 570 656 37,000  Level FlightAware
04:28AM 43.0860 8.4700 124° Southeast 570 656 37,000  Level FlightAware
04:28AM 43.0410 8.5590 125° Southeast 571 657 37,000  Level FlightAware
04:29AM 42.9830 8.6740 125° Southeast 570 656 37,000  Level FlightAware
04:29AM 42.9300 8.7780 125° Southeast 570 656 37,000  Level FlightAware
04:30AM 42.8740 8.8900 124° Southeast 570 656 37,000  Level FlightAware
04:31AM 42.8250 8.9850 125° Southeast 570 656 37,000  Level FlightAware
04:31AM 42.7730 9.0880 124° Southeast 571 657 37,000  Level FlightAware
04:32AM 42.7180 9.1940 125° Southeast 571 657 37,000  Level FlightAware
04:32AM 42.6650 9.2970 125° Southeast 571 657 37,000  Level FlightAware
04:33AM 42.6180 9.3880 125° Southeast 571 657 37,000  Level FlightAware
04:33AM 42.5680 9.5050 120° Southeast 568 654 37,000  Level FlightAware
04:34AM 42.5340 9.6210 112° Southeast 567 652 37,000  Level FlightAware
04:35AM 42.5070 9.7280 109° East 566 651 37,000  Level FlightAware
04:35AM 42.4750 9.8510 109° East 565 650 37,000  Level FlightAware
04:36AM 42.4420 9.9740 110° East 564 649 37,000  Level FlightAware
04:36AM 42.4100 10.0940 110° East 564 649 37,000  Level FlightAware
04:37AM 42.3820 10.1960 110° East 564 649 37,000  Level FlightAware
04:38AM 42.3440 10.3160 113° Southeast 569 655 37,000  Level FlightAware
04:38AM 42.2920 10.4270 122° Southeast 569 655 37,000  Level FlightAware
04:39AM 42.2420 10.5280 124° Southeast 570 656 37,000  Level FlightAware
04:39AM 42.1910 10.6270 125° Southeast 571 657 37,000  Level FlightAware
04:40AM 42.1360 10.7280 126° Southeast 572 658 37,000  Level FlightAware
04:40AM 42.0790 10.8350 126° Southeast 572 658 37,000  Level FlightAware
04:41AM 42.0270 10.9330 126° Southeast 572 658 37,000  Level FlightAware
04:42AM 41.9720 11.0350 126° Southeast 572 658 37,000  Level FlightAware
04:42AM 41.9220 11.1300 125° Southeast 572 658 37,000  Level FlightAware
04:43AM 41.8630 11.2400 126° Southeast 573 659 37,000  Level FlightAware
04:43AM 41.8080 11.3400 126° Southeast 573 659 37,000  Level FlightAware
04:44AM 41.7600 11.4300 126° Southeast 573 659 37,000  Level FlightAware
04:45AM 41.7040 11.5360 125° Southeast 572 658 37,000  Level FlightAware
04:45AM 41.6460 11.6390 127° Southeast 572 658 37,000  Level FlightAware
04:46AM 41.5930 11.7360 126° Southeast 573 659 37,000  Level FlightAware
04:46AM 41.5420 11.8300 126° Southeast 572 658 37,000  Level FlightAware
04:47AM 41.4840 11.9380 126° Southeast 573 659 37,000  Level FlightAware
04:47AM 41.4310 12.0320 127° Southeast 572 658 37,000  Level FlightAware
04:48AM 41.3730 12.1370 126° Southeast 573 659 37,000  Level FlightAware
04:49AM 41.3170 12.2390 126° Southeast 574 661 37,000  Level FlightAware
04:49AM 41.2660 12.3290 127° Southeast 573 659 37,000  Level FlightAware
04:50AM 41.2100 12.4280 127° Southeast 574 661 37,000  Level FlightAware
04:50AM 41.1530 12.5300 127° Southeast 573 659 37,000  Level FlightAware
04:51AM 41.1000 12.6260 126° Southeast 573 659 37,000  Level FlightAware
04:52AM 41.0390 12.7330 127° Southeast 573 659 37,000  Level FlightAware
04:52AM 40.9910 12.8170 127° Southeast 574 661 37,000  Level FlightAware
04:53AM 40.9300 12.9270 126° Southeast 574 661 37,000  Level FlightAware
04:53AM 40.8880 13.0120 123° Southeast 572 658 37,000  Level FlightAware
04:54AM 40.8370 13.1270 120° Southeast 571 657 37,000  Level FlightAware
04:54AM 40.7970 13.2200 120° Southeast 572 658 37,000  Level FlightAware
04:55AM 40.7460 13.3350 120° Southeast 573 659 37,000  Level FlightAware
04:56AM 40.6960 13.4500 120° Southeast 573 659 37,000  Level FlightAware
04:56AM 40.6480 13.5590 120° Southeast 573 659 37,000  Level FlightAware
04:57AM 40.6090 13.6490 120° Southeast 574 661 37,000  Level FlightAware
04:57AM 40.5570 13.7640 121° Southeast 573 659 37,000  Level FlightAware
04:58AM 40.5100 13.8690 120° Southeast 573 659 37,000  Level FlightAware
04:59AM 40.4610 13.9770 121° Southeast 574 661 37,000  Level FlightAware
04:59AM 40.4130 14.0850 120° Southeast 574 661 37,000  Level FlightAware
05:00AM 40.3690 14.1800 121° Southeast 573 659 37,000  Level FlightAware
05:00AM 40.3230 14.2820 121° Southeast 575 662 37,000  Level FlightAware
05:01AM 40.2720 14.3960 120° Southeast 575 662 37,000  Level FlightAware
05:01AM 40.2230 14.5040 121° Southeast 576 663 37,000  Level FlightAware
05:02AM 40.1750 14.6080 121° Southeast 577 664 37,000  Level FlightAware
05:03AM 40.1270 14.7130 121° Southeast 575 662 37,000  Level FlightAware
05:03AM 40.0830 14.8080 121° Southeast 575 662 37,000  Level FlightAware
05:04AM 40.0340 14.9150 121° Southeast 575 662 37,000  Level FlightAware
05:04AM 39.9830 15.0250 121° Southeast 574 661 37,000  Level FlightAware
05:05AM 39.9370 15.1250 121° Southeast 573 659 37,000  Level FlightAware
05:06AM 39.8870 15.2310 122° Southeast 573 659 37,000  Level FlightAware
05:06AM 39.8400 15.3320 121° Southeast 573 659 37,000  Level FlightAware
05:07AM 39.7920 15.4340 121° Southeast 574 661 37,000  Level FlightAware
05:07AM 39.7460 15.5320 121° Southeast 573 659 37,000  Level FlightAware
05:08AM 39.6930 15.6460 121° Southeast 573 659 37,000  Level FlightAware
05:08AM 39.6470 15.7400 122° Southeast 573 659 37,000  Level FlightAware
05:09AM 39.6000 15.8420 121° Southeast 572 658 37,000  Level FlightAware
05:10AM 39.5590 15.9560 115° Southeast 562 647 37,000  Level FlightAware
05:10AM 39.5290 16.0560 111° Southeast 562 647 37,000  Level FlightAware
05:11AM 39.5000 16.1570 110° East 563 648 37,000  Level FlightAware
05:11AM 39.4600 16.2810 113° Southeast 561 646 37,000  Level FlightAware
05:12AM 39.4230 16.3930 113° Southeast 563 648 37,000  Level FlightAware
05:13AM 39.3900 16.4950 113° Southeast 563 648 37,000  Level FlightAware
05:13AM 39.3510 16.6090 114° Southeast 562 647 37,000  Level FlightAware
05:14AM 39.3160 16.7130 113° Southeast 561 646 37,000  Level FlightAware
05:14AM 39.2820 16.8150 113° Southeast 562 647 37,000  Level FlightAware
05:15AM 39.2450 16.9220 114° Southeast 562 647 37,000  Level FlightAware
05:15AM 39.2070 17.0360 113° Southeast 560 644 37,000  Level FlightAware
05:16AM 39.1730 17.1360 114° Southeast 560 644 37,000  Level FlightAware
05:17AM 39.1350 17.2460 114° Southeast 557 641 37,000  Level FlightAware
05:17AM 39.0970 17.3580 114° Southeast 557 641 37,000  Level FlightAware
05:18AM 39.0600 17.4680 113° Southeast 559 643 37,000  Level FlightAware
05:18AM 39.0260 17.5650 114° Southeast 558 642 37,000  Level FlightAware
05:19AM 38.9890 17.6710 114° Southeast 557 641 37,000  Level FlightAware
05:20AM 38.9510 17.7830 114° Southeast 559 643 37,000  Level FlightAware
05:20AM 38.9130 17.8920 114° Southeast 560 644 37,000  Level FlightAware
05:21AM 38.8750 18.0010 114° Southeast 561 646 37,000  Level FlightAware
05:21AM 38.8410 18.0980 114° Southeast 559 643 37,000  Level FlightAware
05:22AM 38.8030 18.2040 115° Southeast 560 644 37,000  Level FlightAware
05:22AM 38.7640 18.3120 115° Southeast 560 644 37,000  Level FlightAware
05:23AM 38.7250 18.4240 114° Southeast 560 644 37,000  Level FlightAware
05:24AM 38.6910 18.5210 114° Southeast 561 646 37,000  Level FlightAware
05:24AM 38.6500 18.6350 115° Southeast 560 644 37,000  Level FlightAware
05:25AM 38.6180 18.7230 115° Southeast 560 644 37,000  Level FlightAware
05:25AM 38.5770 18.8370 115° Southeast 561 646 37,000  Level FlightAware
05:26AM 38.5670 18.8640 115° Southeast 560 644 37,000  Level FlightAware
05:27AM 38.5190 19.0000 114° Southeast 560 644 37,000  Level FlightAware
05:27AM 38.4860 19.0930 114° Southeast 560 644 37,000  Level FlightAware
05:28AM 38.4540 19.1850 114° Southeast 560 644 37,000  Level FlightAware
05:28AM 38.4300 19.3340 102° East 555 639 37,000  Level FlightAware
05:29AM 38.3970 19.4580 109° East 558 642 37,000  Level FlightAware
05:30AM 38.3660 19.5770 108° East 559 643 37,000  Level FlightAware
05:30AM 38.3400 19.6700 110° East 561 646 37,000  Level FlightAware
05:31AM 38.3000 19.8230 108° East 563 648 37,000  Level FlightAware
05:31AM 38.2770 19.9050 110° East 562 647 37,000  Level FlightAware
05:32AM 38.2390 20.0280 111° Southeast 563 648 37,000  Level FlightAware
05:33AM 38.2010 20.1470 112° Southeast 563 648 37,000  Level FlightAware
05:33AM 38.1480 20.3140 112° Southeast 556 640 37,000  Level FlightAware
05:34AM 38.1190 20.4050 112° Southeast 557 641 37,000  Level FlightAware
05:35AM 38.0890 20.5040 111° Southeast 557 641 37,000  Level FlightAware
05:35AM 38.0510 20.6240 112° Southeast 555 639 37,000  Level FlightAware
05:36AM 38.0220 20.7180 111° Southeast 555 639 37,000  Level FlightAware
05:36AM 37.9910 20.8170 112° Southeast 554 638 37,000  Level FlightAware
05:37AM 37.9540 20.9320 112° Southeast 558 642 37,000  Level FlightAware
05:37AM 37.9140 21.0570 112° Southeast 562 647 37,000  Level FlightAware
05:38AM 37.8790 21.1670 112° Southeast 562 647 37,000  Level FlightAware
05:39AM 37.8420 21.2790 113° Southeast 562 647 37,000  Level FlightAware
05:39AM 37.8050 21.3950 112° Southeast 563 648 37,000  Level FlightAware
05:40AM 37.7750 21.4900 112° Southeast 563 648 37,000  Level FlightAware
05:40AM 37.7440 21.5810 113° Southeast 561 646 37,000  Level FlightAware
05:41AM 37.7020 21.7110 112° Southeast 559 643 37,000  Level FlightAware
05:42AM 37.6720 21.8040 112° Southeast 558 642 37,000  Level FlightAware
05:42AM 37.6340 21.9180 113° Southeast 559 643 37,000  Level FlightAware
05:43AM 37.6000 22.0240 112° Southeast 559 643 37,000  Level FlightAware
05:43AM 37.5610 22.1410 113° Southeast 559 643 37,000  Level FlightAware
05:44AM 37.5300 22.2310 113° Southeast 559 643 37,000  Level FlightAware
05:45AM 37.4930 22.3420 113° Southeast 559 643 37,000  Level FlightAware
05:45AM 37.4550 22.4560 113° Southeast 563 648 37,000  Level FlightAware
05:46AM 37.4230 22.5530 113° Southeast 563 648 37,000  Level FlightAware
05:46AM 37.3890 22.6520 113° Southeast 562 647 37,000  Level FlightAware
05:47AM 37.3500 22.7690 113° Southeast 561 646 37,000  Level FlightAware
05:47AM 37.3180 22.8630 113° Southeast 565 650 37,000  Level FlightAware
05:48AM 37.2810 22.9710 113° Southeast 565 650 37,000  Level FlightAware
05:49AM 37.2430 23.0830 113° Southeast 564 649 37,000  Level FlightAware
05:49AM 37.2060 23.1870 114° Southeast 564 649 37,000  Level FlightAware
05:50AM 37.1730 23.2840 113° Southeast 565 650 37,000  Level FlightAware
05:50AM 37.1340 23.3980 113° Southeast 564 649 37,000  Level FlightAware
05:51AM 37.1000 23.4940 114° Southeast 564 649 37,000  Level FlightAware
05:51AM 37.0640 23.5950 114° Southeast 562 647 37,000  Level FlightAware
05:52AM 37.0270 23.7050 113° Southeast 561 646 37,000  Level FlightAware
05:53AM 36.9870 23.8180 114° Southeast 558 642 37,000  Level FlightAware
05:53AM 36.9520 23.9150 114° Southeast 558 642 37,000  Level FlightAware
05:54AM 36.9140 24.0240 114° Southeast 556 640 37,000  Level FlightAware
05:54AM 36.8820 24.1150 114° Southeast 554 638 37,000  Level FlightAware
05:55AM 36.8430 24.2230 114° Southeast 555 639 37,000  Level FlightAware
05:56AM 36.8080 24.3200 114° Southeast 559 643 37,000  Level FlightAware
05:56AM 36.7670 24.4350 114° Southeast 560 644 37,000  Level FlightAware
05:57AM 36.7360 24.5240 113° Southeast 563 648 37,000  Level FlightAware
05:57AM 36.6950 24.6360 115° Southeast 562 647 37,000  Level FlightAware
05:58AM 36.6570 24.7420 114° Southeast 559 643 37,000  Level FlightAware
05:59AM 36.6230 24.8360 114° Southeast 556 640 37,000  Level FlightAware
05:59AM 36.5830 24.9430 115° Southeast 550 633 37,000  Level FlightAware
06:00AM 36.5460 25.0460 114° Southeast 546 628 37,000  Level FlightAware
06:00AM 36.5020 25.1660 114° Southeast 543 625 37,000  Level FlightAware
06:01AM 36.4640 25.2680 115° Southeast 543 625 37,000  Level FlightAware
06:02AM 36.4270 25.3700 114° Southeast 543 625 37,000  Level FlightAware
06:02AM 36.3940 25.4580 115° Southeast 542 624 37,000  Level FlightAware
06:03AM 36.3540 25.5650 115° Southeast 543 625 37,000  Level FlightAware
06:03AM 36.3180 25.6640 114° Southeast 544 626 37,000  Level FlightAware
06:04AM 36.2820 25.7610 115° Southeast 546 628 37,000  Level FlightAware
06:04AM 36.2430 25.8630 115° Southeast 546 628 37,000  Level FlightAware
06:05AM 36.2070 25.9590 115° Southeast 547 629 37,000  Level FlightAware
06:06AM 36.1670 26.0640 115° Southeast 546 628 37,000  Level FlightAware
06:06AM 36.1330 26.1540 115° Southeast 546 628 37,000  Level FlightAware
06:07AM 36.0920 26.2620 115° Southeast 543 625 37,000  Level FlightAware
06:07AM 36.0540 26.3600 116° Southeast 541 623 37,000  Level FlightAware
06:08AM 36.0200 26.4490 115° Southeast 541 623 37,000  Level FlightAware
06:09AM 35.9810 26.5520 115° Southeast 539 620 37,000  Level FlightAware
06:09AM 35.9430 26.6490 116° Southeast 538 619 37,000  Level FlightAware
06:10AM 35.9040 26.7490 116° Southeast 539 620 37,000  Level FlightAware
06:10AM 35.8730 26.8310 115° Southeast 539 620 37,000  Level FlightAware
06:11AM 35.8380 26.9270 114° Southeast 535 616 37,000  Level FlightAware
06:12AM 35.7820 27.0710 116° Southeast 534 615 37,000  Level FlightAware
06:12AM 35.7350 27.1860 117° Southeast 539 620 37,000  Level FlightAware
06:13AM 35.6950 27.2880 116° Southeast 537 618 37,000  Level FlightAware
06:14AM 35.6560 27.3870 116° Southeast 538 619 37,000  Level FlightAware
06:14AM 35.6210 27.4750 116° Southeast 538 619 37,000  Level FlightAware
06:15AM 35.5830 27.5710 116° Southeast 536 617 37,000  Level FlightAware
06:15AM 35.5430 27.6720 116° Southeast 538 619 37,000  Level FlightAware
06:16AM 35.5050 27.7650 117° Southeast 537 618 37,000  Level FlightAware
06:16AM 35.4700 27.8560 115° Southeast 537 618 37,000  Level FlightAware
06:17AM 35.4270 27.9620 116° Southeast 536 617 37,000  Level FlightAware
06:18AM 35.3870 28.0610 116° Southeast 536 617 37,000  Level FlightAware
06:18AM 35.3530 28.1450 116° Southeast 536 617 37,000  Level FlightAware
06:19AM 35.3040 28.2680 116° Southeast 535 616 37,000  Level FlightAware
06:20AM 35.2590 28.3780 117° Southeast 535 616 37,000  Level FlightAware
06:20AM 35.2240 28.4620 117° Southeast 535 616 37,000  Level FlightAware
06:21AM 35.1830 28.5630 116° Southeast 534 615 37,000  Level FlightAware
06:21AM 35.1490 28.6460 117° Southeast 533 613 37,000  Level FlightAware
06:22AM 35.1060 28.7510 117° Southeast 527 606 37,000  Level FlightAware
06:23AM 35.0750 28.8280 116° Southeast 526 605 37,000  Level FlightAware
06:23AM 35.0410 28.9180 115° Southeast 526 605 37,000  Level FlightAware
06:23AM 35.0190 28.9610 122° Southeast 642 739 37,000  Level FlightAware
06:23AM 35.0130 28.9750 118° Southeast 522 601 37,000  Level FlightAware
06:24AM 34.9620 29.1010 116° Southeast 520 598 37,000  Level FlightAware
06:25AM 34.9220 29.1960 117° Southeast 523 602 37,000  Level FlightAware
06:25AM 34.8740 29.3120 117° Southeast 520 598 37,000  Level FlightAware
06:26AM 34.8370 29.3980 118° Southeast 521 600 37,000  Level FlightAware
06:27AM 34.7990 29.4880 117° Southeast 525 604 37,000  Level FlightAware
06:28AM 34.7450 29.6200 116° Southeast 526 605 37,000  Level FlightAware
06:28AM 34.7030 29.7170 118° Southeast 528 608 37,000  Level FlightAware
06:29AM 34.6560 29.8280 117° Southeast 528 608 37,000  Level FlightAware
06:29AM 34.6140 29.9280 117° Southeast 529 609 37,000  Level FlightAware
06:30AM 34.5720 30.0260 117° Southeast 529 609 37,000  Level FlightAware
06:31AM 34.5380 30.1070 117° Southeast 529 609 37,000  Level FlightAware
06:31AM 34.4900 30.1810 128° Southeast 800 921 37,000  Level FlightAware
06:31AM 34.4850 30.1920 119° Southeast 37,000  Level FlightAware
06:32AM 34.4280 30.3120 120° Southeast 524 603 37,000  Level FlightAware
06:32AM 34.3880 30.3960 120° Southeast 523 602 37,000  Level FlightAware
06:33AM 34.3490 30.4780 120° Southeast 524 603 37,000  Level FlightAware
06:34AM 34.2990 30.5800 121° Southeast 525 604 37,000  Level FlightAware
06:34AM 34.2560 30.6700 120° Southeast 524 603 37,000  Level FlightAware
06:35AM 34.2190 30.7460 120° Southeast 525 604 37,000  Level FlightAware
06:35AM 34.1690 30.8510 120° Southeast 525 604 37,000  Level FlightAware
06:36AM 34.1330 30.9250 120° Southeast 525 604 37,000  Level FlightAware
06:37AM 34.0890 31.0160 120° Southeast 525 604 37,000  Level FlightAware
06:37AM 34.0450 31.1050 121° Southeast 524 603 37,000  Level FlightAware
06:38AM 33.9960 31.2040 121° Southeast 522 601 37,000  Level FlightAware
06:38AM 33.9560 31.2870 120° Southeast 520 598 37,000  Level FlightAware
06:39AM 33.9160 31.3670 121° Southeast 518 596 37,000  Level FlightAware
06:39AM 33.8720 31.4570 120° Southeast 517 595 37,000  Level FlightAware
06:40AM 33.8230 31.5540 121° Southeast 517 595 37,000  Level FlightAware
06:41AM 33.7810 31.6410 120° Southeast 518 596 37,000  Level FlightAware
06:41AM 33.7350 31.7330 121° Southeast 516 594 37,000  Level FlightAware
06:42AM 33.6970 31.8070 122° Southeast 515 593 37,000  Level FlightAware
06:42AM 33.6540 31.8940 121° Southeast 514 592 37,000  Level FlightAware
06:43AM 33.6040 31.9950 121° Southeast 514 592 37,000  Level FlightAware
06:44AM 33.5600 32.0830 121° Southeast 514 592 37,000  Level FlightAware
06:44AM 33.5120 32.1770 121° Southeast 514 592 37,000  Level FlightAware
06:45AM 33.4730 32.2550 121° Southeast 514 592 37,000  Level FlightAware
06:45AM 33.4290 32.3410 121° Southeast 513 590 37,000 -300 Level FlightAware
06:46AM 33.3890 32.4220 121° Southeast 507 583 36,700 -960 Descending FlightAware
06:47AM 33.3450 32.5080 121° Southeast 508 585 35,900 -1,320 Descending FlightAware
06:47AM 33.2970 32.6030 121° Southeast 503 579 35,100 -1,740 Descending FlightAware
06:48AM 33.2590 32.6760 122° Southeast 502 578 33,900 -2,220 Descending FlightAware
06:48AM 33.2170 32.7580 121° Southeast 492 566 32,700 -1,440 Descending FlightAware
06:49AM 33.1540 32.8810 121° Southeast 483 556 31,700 -1,500 Descending FlightAware
06:50AM 33.1160 32.9550 121° Southeast 467 537 30,500 -2,280 Descending FlightAware
06:50AM 33.0690 33.0450 122° Southeast 457 526 29,100 -2,160 Descending FlightAware
06:51AM 33.0270 33.1280 121° Southeast 446 513 27,800 -1,980 Descending FlightAware
06:52AM 32.9900 33.2000 121° Southeast 435 501 26,700 -1,380 Descending FlightAware
06:53AM 32.9380 33.2990 122° Southeast 426 490 25,800 -1,860 Descending FlightAware
06:54AM 32.8750 33.4200 122° Southeast 398 458 23,200 -2,340 Descending FlightAware
06:54AM 32.8440 33.4810 121° Southeast 388 447 22,200 -1,860 Descending FlightAware
06:55AM 32.8050 33.5540 122° Southeast 395 455 21,000 -1,800 Descending FlightAware
06:55AM 32.7710 33.6190 122° Southeast 401 461 20,000 -1,800 Descending FlightAware
06:56AM 32.7370 33.6850 121° Southeast 390 449 18,900 -1,740 Descending FlightAware
06:57AM 32.7040 33.7460 123° Southeast 379 436 18,000 -1,740 Descending FlightAware
06:57AM 32.6710 33.8090 122° Southeast 367 422 16,900 -1,680 Descending FlightAware
06:58AM 32.6390 33.8710 121° Southeast 357 411 16,000 -1,500 Descending FlightAware
06:58AM 32.6120 33.9200 123° Southeast 349 402 15,200 -1,620 Descending FlightAware
06:59AM 32.5800 33.9810 122° Southeast 341 392 14,200 -1,620 Descending FlightAware
06:59AM 32.5510 34.0360 122° Southeast 352 405 13,300 -1,620 Descending FlightAware
07:00AM 32.5190 34.0960 122° Southeast 344 396 12,300 -1,560 Descending FlightAware
07:01AM 32.4940 34.1430 122° Southeast 335 386 11,600 -1,500 Descending FlightAware
07:01AM 32.4640 34.1860 130° Southeast 327 376 10,800 -960 Descending FlightAware
07:02AM 32.4270 34.2310 134° Southeast 323 372 10,500 -240 Descending FlightAware
07:02AM 32.3940 34.2710 134° Southeast 323 372 10,500  Level FlightAware
07:03AM 32.3620 34.3100 134° Southeast 323 372 10,500  Level FlightAware
07:06AM 32.1199 34.6504 115° Southeast  Level FlightAware Approximate
07:07AM 32.0433 34.7945 125° Southeast  Level FlightAware Approximate
07:08AM 32.0000 34.8667 125° Southeast  Level FlightAware Approximate
07:09AM 32.0095 34.8769 125° Southeast  Level Estimated
07:10AM 32.0095 34.8769 125° Southeast  Level Estimated
07:11AM 32.0095 34.8769 125° Southeast  Level Estimated
07:12AM 32.0095 34.8769 125° Southeast  Level Estimated
07:13AM 32.0095 34.8769 125° Southeast  Level Estimated
07:14AM 32.0095 34.8769 125° Southeast  Level Estimated
07:15AM 32.0095 34.8769 125° Southeast  Level Estimated
07:16AM 32.0095 34.8769 125° Southeast  Level Estimated